Time;durP1;ratioP1;P1;durP2;ratioP2;P2;SDS_P1;SDS_P2;PMS_P1;PMS_P2;Temp;Humidity;BMP_temperature;BMP_pressure;BME280_temperature;BME280_humidity;BME280_pressure;Samples;Min_cycle;Max_cycle;Signal;HPM_P1;HPM_P2
2022/10/26 00:02:22;;;;;;;46.03;6.72;;;6.60;99.90;;;;;;5071334;28;20055;-52
2022/10/26 00:04:47;;;;;;;15.93;4.97;;;6.60;99.90;;;;;;5071294;28;20052;-51
2022/10/26 00:07:13;;;;;;;6.28;4.32;;;6.60;99.90;;;;;;5071138;28;20028;-49
2022/10/26 00:09:38;;;;;;;8.77;4.50;;;6.60;99.90;;;;;;5071207;28;20561;-51
2022/10/26 00:12:04;;;;;;;5.95;4.10;;;6.60;99.90;;;;;;5071433;28;20024;-49
2022/10/26 00:14:30;;;;;;;5.60;4.28;;;6.60;99.90;;;;;;5071152;28;20036;-49
2022/10/26 00:16:56;;;;;;;9.25;4.93;;;6.60;99.90;;;;;;5070744;28;20032;-50
2022/10/26 00:19:21;;;;;;;7.70;3.92;;;6.60;99.90;;;;;;5071007;28;20099;-51
2022/10/26 00:21:47;;;;;;;5.85;4.25;;;6.60;99.90;;;;;;5071216;28;20021;-50
2022/10/26 00:24:13;;;;;;;10.85;4.47;;;6.60;99.90;;;;;;5071122;28;20028;-50
2022/10/26 00:26:39;;;;;;;4.32;3.75;;;6.70;99.90;;;;;;5071442;28;20033;-50
2022/10/26 00:29:05;;;;;;;5.65;3.83;;;6.70;99.90;;;;;;5071298;28;20032;-50
2022/10/26 00:31:31;;;;;;;8.88;3.92;;;6.70;99.90;;;;;;5070809;28;20378;-49
2022/10/26 00:33:57;;;;;;;8.68;3.60;;;6.80;99.90;;;;;;5069859;28;20119;-50
2022/10/26 00:36:24;;;;;;;11.35;3.67;;;6.80;99.90;;;;;;5069472;28;20029;-51
2022/10/26 00:38:54;;;;;;;4.20;3.42;;;6.90;99.90;;;;;;5071034;28;20025;-50
2022/10/26 00:41:29;;;;;;;12.23;3.70;;;7.00;99.90;;;;;;5074634;28;20031;-50
2022/10/26 00:43:55;;;;;;;4.28;3.95;;;7.00;99.90;;;;;;5074832;28;20036;-49
2022/10/26 00:46:36;;;;;;;4.70;4.30;;;7.00;99.90;;;;;;5074395;28;20073;-50
2022/10/26 00:49:08;;;;;;;7.82;3.72;;;7.10;99.90;;;;;;5074726;28;20032;-49
2022/10/26 00:51:42;;;;;;;5.97;5.15;;;7.10;99.90;;;;;;5074618;28;20368;-51
2022/10/26 00:54:17;;;;;;;10.60;4.35;;;7.10;99.90;;;;;;5074630;28;20028;-50
2022/10/26 00:56:44;;;;;;;10.02;3.85;;;7.20;99.90;;;;;;5074502;28;20564;-50
2022/10/26 00:59:12;;;;;;;8.98;4.03;;;7.30;99.90;;;;;;5074408;28;20029;-50
2022/10/26 01:01:41;;;;;;;7.68;3.90;;;7.30;99.90;;;;;;5074188;28;20032;-51
2022/10/26 01:04:07;;;;;;;8.32;3.58;;;7.30;99.90;;;;;;5074449;28;20422;-51
2022/10/26 01:06:35;;;;;;;7.43;4.18;;;7.30;99.90;;;;;;5074360;28;20024;-50
2022/10/26 01:09:02;;;;;;;14.23;3.83;;;7.40;99.90;;;;;;5072846;28;20127;-52
2022/10/26 01:11:27;;;;;;;5.13;3.95;;;7.30;99.90;;;;;;5074162;28;20029;-50
2022/10/26 01:13:55;;;;;;;13.45;4.32;;;7.40;99.90;;;;;;5073031;28;20023;-51
2022/10/26 01:16:30;;;;;;;8.35;4.10;;;7.40;99.90;;;;;;5073935;28;20020;-51
2022/10/26 01:19:20;;;;;;;4.07;3.20;;;7.40;99.90;;;;;;5074145;28;20115;-51
2022/10/26 01:21:51;;;;;;;8.20;3.80;;;7.50;99.90;;;;;;5074310;28;20017;-50
2022/10/26 01:24:47;;;;;;;5.35;3.80;;;7.50;99.90;;;;;;5073740;28;20338;-50
2022/10/26 01:27:31;;;;;;;11.02;4.20;;;7.50;99.90;;;;;;5074031;28;20460;-50
2022/10/26 01:30:16;;;;;;;6.15;4.05;;;7.50;99.90;;;;;;5073733;28;20043;-49
2022/10/26 01:32:54;;;;;;;4.45;4.05;;;7.50;99.90;;;;;;5073906;28;20452;-50
2022/10/26 01:35:53;;;;;;;4.03;3.33;;;7.50;99.90;;;;;;5073800;28;20039;-50
2022/10/26 01:38:25;;;;;;;7.78;3.78;;;7.60;99.90;;;;;;5068163;28;20373;-50
2022/10/26 01:41:02;;;;;;;7.25;4.50;;;7.50;99.90;;;;;;5073423;28;20028;-54
2022/10/26 01:43:34;;;;;;;8.55;3.97;;;7.60;99.90;;;;;;5073395;28;20103;-50
2022/10/26 01:46:01;;;;;;;4.95;3.55;;;7.50;99.90;;;;;;5073632;28;20483;-50
2022/10/26 01:48:28;;;;;;;4.95;3.50;;;7.60;99.90;;;;;;5073077;28;20074;-49
2022/10/26 01:50:56;;;;;;;5.30;4.32;;;7.60;99.90;;;;;;5072596;28;20443;-50
2022/10/26 01:53:21;;;;;;;9.73;3.45;;;7.70;99.90;;;;;;5073099;28;20028;-51
2022/10/26 01:55:50;;;;;;;6.60;3.85;;;7.60;99.90;;;;;;5072392;28;20032;-50
2022/10/26 01:58:29;;;;;;;11.45;3.85;;;7.70;99.90;;;;;;5073330;28;20060;-50
2022/10/26 02:01:05;;;;;;;6.82;3.75;;;7.70;99.90;;;;;;5073495;28;20484;-51
2022/10/26 02:03:49;;;;;;;3.83;3.35;;;7.80;99.90;;;;;;5073110;28;20021;-51
2022/10/26 02:06:29;;;;;;;10.73;3.33;;;7.80;99.90;;;;;;5071024;28;20020;-50
2022/10/26 02:09:19;;;;;;;6.57;3.03;;;7.80;99.90;;;;;;5069345;28;20701;-49
2022/10/26 02:11:47;;;;;;;9.27;3.72;;;7.80;99.90;;;;;;5071381;28;20024;-50
2022/10/26 02:14:36;;;;;;;6.93;3.72;;;7.80;99.90;;;;;;5070600;28;20021;-52
2022/10/26 02:17:10;;;;;;;5.28;4.78;;;7.90;99.90;;;;;;5070529;28;20521;-49
2022/10/26 02:19:42;;;;;;;19.60;2.58;;;7.90;99.90;;;;;;5071742;28;20020;-50
2022/10/26 02:22:20;;;;;;;7.10;2.75;;;7.90;99.90;;;;;;5072940;28;20020;-51
2022/10/26 02:24:48;;;;;;;11.73;3.05;;;8.00;99.90;;;;;;5071412;28;20111;-51
2022/10/26 02:27:20;;;;;;;11.82;2.42;;;8.00;99.90;;;;;;5072614;28;20020;-51
2022/10/26 02:29:49;;;;;;;8.10;2.97;;;8.00;99.90;;;;;;5072771;28;20048;-54
2022/10/26 02:32:17;;;;;;;8.13;2.58;;;8.00;99.90;;;;;;5072656;28;20074;-49
2022/10/26 02:34:47;;;;;;;3.72;2.63;;;8.00;99.90;;;;;;5072810;28;20383;-50
2022/10/26 02:37:17;;;;;;;7.60;3.50;;;8.00;99.90;;;;;;5072462;28;20029;-50
2022/10/26 02:39:45;;;;;;;8.32;2.70;;;8.00;99.90;;;;;;5072617;28;20108;-51
2022/10/26 02:42:14;;;;;;;8.23;2.65;;;8.10;99.90;;;;;;5072164;28;20027;-51
2022/10/26 02:44:48;;;;;;;6.20;2.70;;;8.20;99.90;;;;;;5072542;28;20027;-49
2022/10/26 02:47:15;;;;;;;5.38;3.00;;;8.20;99.90;;;;;;5071150;28;20036;-50
2022/10/26 02:49:42;;;;;;;2.90;2.60;;;8.10;99.90;;;;;;5072289;28;20082;-51
2022/10/26 02:52:16;;;;;;;9.20;3.08;;;8.10;99.90;;;;;;5072403;28;20530;-52
2022/10/26 02:55:00;;;;;;;11.52;4.03;;;8.10;99.90;;;;;;5072438;28;20037;-50
2022/10/26 02:57:31;;;;;;;7.95;2.90;;;8.20;99.90;;;;;;5071830;28;20087;-50
2022/10/26 02:59:57;;;;;;;7.65;3.28;;;8.10;99.90;;;;;;5070864;28;20116;-51
2022/10/26 03:02:24;;;;;;;4.03;3.05;;;8.10;99.90;;;;;;5071760;28;20045;-50
2022/10/26 03:04:50;;;;;;;3.53;3.22;;;8.10;99.90;;;;;;5072145;28;20024;-50
2022/10/26 03:07:23;;;;;;;5.50;3.38;;;8.20;99.90;;;;;;5072027;28;20095;-51
2022/10/26 03:09:49;;;;;;;5.50;3.85;;;8.30;99.90;;;;;;5072074;28;20040;-51
2022/10/26 03:12:14;;;;;;;8.15;3.55;;;8.30;99.90;;;;;;5071748;28;20029;-50
2022/10/26 03:14:40;;;;;;;4.50;3.72;;;8.30;99.90;;;;;;5071970;28;20093;-50
2022/10/26 03:17:06;;;;;;;6.75;3.40;;;8.40;99.90;;;;;;5071985;28;20028;-52
2022/10/26 03:19:32;;;;;;;9.32;3.50;;;8.60;99.90;;;;;;5071774;28;20601;-50
2022/10/26 03:21:57;;;;;;;4.10;3.28;;;8.50;99.90;;;;;;5071980;28;20020;-51
2022/10/26 03:24:23;;;;;;;12.07;3.55;;;8.50;99.90;;;;;;5071862;28;20048;-50
2022/10/26 03:26:48;;;;;;;10.65;4.68;;;8.50;99.90;;;;;;5071592;28;20060;-50
2022/10/26 03:29:14;;;;;;;9.82;3.70;;;8.40;99.90;;;;;;5071511;28;20028;-49
2022/10/26 03:31:40;;;;;;;4.25;3.78;;;8.40;99.90;;;;;;5071691;28;20029;-51
2022/10/26 03:34:05;;;;;;;7.28;3.85;;;8.50;99.90;;;;;;5071689;28;20116;-50
2022/10/26 03:36:31;;;;;;;7.40;4.50;;;8.60;99.90;;;;;;5071522;28;20024;-49
2022/10/26 03:38:57;;;;;;;5.82;4.00;;;8.70;99.90;;;;;;5071589;28;20376;-49
2022/10/26 03:41:23;;;;;;;11.57;4.32;;;8.70;99.90;;;;;;5071393;28;20025;-49
2022/10/26 03:43:48;;;;;;;10.77;5.00;;;8.70;99.90;;;;;;5071505;28;20460;-50
2022/10/26 03:46:14;;;;;;;5.72;4.07;;;8.70;99.90;;;;;;5071417;28;20043;-49
2022/10/26 03:48:40;;;;;;;8.23;3.97;;;8.80;99.90;;;;;;5071603;28;20414;-50
2022/10/26 03:51:05;;;;;;;16.10;4.82;;;8.90;99.90;;;;;;5071668;28;20060;-50
2022/10/26 03:53:31;;;;;;;8.85;4.38;;;8.90;99.90;;;;;;5071467;28;20031;-51
2022/10/26 03:55:57;;;;;;;7.97;3.88;;;8.90;99.90;;;;;;5071476;28;20024;-52
2022/10/26 03:58:22;;;;;;;5.43;4.90;;;9.00;99.90;;;;;;5071210;28;20033;-50
2022/10/26 04:00:48;;;;;;;6.97;5.10;;;9.00;99.90;;;;;;5071378;28;20025;-50
2022/10/26 04:03:14;;;;;;;13.85;6.00;;;9.00;99.90;;;;;;5071222;28;20349;-49
2022/10/26 04:05:39;;;;;;;14.52;8.63;;;9.00;99.90;;;;;;5071648;28;20025;-50
2022/10/26 04:08:05;;;;;;;11.13;5.25;;;9.20;99.90;;;;;;5071268;28;20041;-51
2022/10/26 04:10:31;;;;;;;9.55;4.53;;;9.10;99.90;;;;;;5071253;28;20025;-50
2022/10/26 04:13:00;;;;;;;12.02;4.50;;;9.10;99.90;;;;;;5071130;28;20157;-50
2022/10/26 04:15:26;;;;;;;11.82;5.28;;;9.10;99.90;;;;;;5073469;28;20032;-51
2022/10/26 04:17:57;;;;;;;11.10;4.32;;;9.00;99.90;;;;;;5075300;28;20028;-50
2022/10/26 04:20:23;;;;;;;7.65;5.25;;;9.10;99.90;;;;;;5074839;28;20043;-50
2022/10/26 04:22:57;;;;;;;5.60;3.90;;;9.10;99.90;;;;;;5075229;28;20028;-49
2022/10/26 04:25:22;;;;;;;6.78;4.65;;;9.10;99.90;;;;;;5075123;28;20036;-52
2022/10/26 04:27:48;;;;;;;5.03;4.35;;;9.10;99.90;;;;;;5075070;28;20029;-49
2022/10/26 04:30:13;;;;;;;6.95;5.90;;;9.10;99.90;;;;;;5074320;28;20558;-51
2022/10/26 04:32:39;;;;;;;14.23;6.70;;;9.20;99.90;;;;;;5074700;28;20056;-49
2022/10/26 04:35:05;;;;;;;9.82;8.70;;;9.20;99.90;;;;;;5074190;28;20099;-50
2022/10/26 04:37:31;;;;;;;17.17;6.40;;;9.20;99.90;;;;;;5074464;28;20024;-50
2022/10/26 04:39:57;;;;;;;6.82;4.93;;;9.20;99.90;;;;;;5074843;28;20017;-50
2022/10/26 04:42:23;;;;;;;11.63;6.22;;;9.20;99.90;;;;;;5073322;28;20044;-49
2022/10/26 04:44:48;;;;;;;9.32;5.63;;;9.20;99.90;;;;;;5074501;28;20028;-49
2022/10/26 04:47:14;;;;;;;9.40;6.00;;;9.20;99.90;;;;;;5072966;28;20078;-52
2022/10/26 04:49:40;;;;;;;10.43;5.80;;;9.20;99.90;;;;;;5074598;28;20021;-49
2022/10/26 04:52:05;;;;;;;7.30;6.60;;;9.30;99.90;;;;;;5074613;28;20024;-50
2022/10/26 04:54:31;;;;;;;13.45;8.60;;;9.30;99.90;;;;;;5074422;28;20074;-50
2022/10/26 04:56:56;;;;;;;14.13;9.40;;;9.20;99.90;;;;;;5074409;28;20558;-49
2022/10/26 04:59:22;;;;;;;14.95;5.63;;;9.20;99.90;;;;;;5074000;28;20112;-50
2022/10/26 05:01:48;;;;;;;6.00;5.40;;;9.30;99.90;;;;;;5074020;28;20112;-50
2022/10/26 05:04:13;;;;;;;10.40;5.97;;;9.30;99.90;;;;;;5074209;28;20036;-50
2022/10/26 05:06:39;;;;;;;7.60;5.30;;;9.20;99.90;;;;;;5074499;28;20040;-50
2022/10/26 05:09:05;;;;;;;9.82;5.90;;;9.20;99.90;;;;;;5073252;28;20119;-50
2022/10/26 05:11:30;;;;;;;9.70;4.93;;;9.20;99.90;;;;;;5072803;28;20017;-51
2022/10/26 05:13:56;;;;;;;8.75;4.85;;;9.10;99.90;;;;;;5073111;28;20033;-52
2022/10/26 05:16:22;;;;;;;5.90;5.15;;;9.20;99.90;;;;;;5072481;28;20035;-49
2022/10/26 05:18:48;;;;;;;15.13;5.72;;;9.20;99.90;;;;;;5072994;28;20077;-50
2022/10/26 05:21:18;;;;;;;11.95;5.25;;;9.20;99.90;;;;;;5072666;28;20017;-50
2022/10/26 05:23:52;;;;;;;14.75;5.32;;;9.20;99.90;;;;;;5072693;28;20077;-50
2022/10/26 05:26:18;;;;;;;5.53;4.45;;;9.20;99.90;;;;;;5072284;28;20401;-51
2022/10/26 05:28:44;;;;;;;18.98;5.20;;;9.30;99.90;;;;;;5072625;28;20085;-50
2022/10/26 05:31:10;;;;;;;14.40;4.65;;;9.20;99.90;;;;;;5072183;28;20040;-50
2022/10/26 05:33:36;;;;;;;9.30;4.70;;;9.20;99.90;;;;;;5072661;28;20035;-50
2022/10/26 05:36:02;;;;;;;9.82;4.60;;;9.10;99.90;;;;;;5072679;28;20020;-49
2022/10/26 05:38:28;;;;;;;10.52;5.07;;;9.10;99.90;;;;;;5072477;28;20074;-50
2022/10/26 05:40:54;;;;;;;12.07;4.97;;;9.10;99.90;;;;;;5072518;28;20020;-50
2022/10/26 05:43:21;;;;;;;9.18;4.75;;;9.10;99.90;;;;;;5072448;28;20017;-51
2022/10/26 05:45:49;;;;;;;7.78;4.75;;;9.20;99.90;;;;;;5072367;28;20024;-49
2022/10/26 05:48:15;;;;;;;6.90;4.13;;;9.20;99.90;;;;;;5072405;28;20126;-50
2022/10/26 05:50:41;;;;;;;6.53;4.63;;;9.20;99.90;;;;;;5072362;28;20731;-50
2022/10/26 05:53:06;;;;;;;5.25;4.75;;;9.20;99.90;;;;;;5072497;28;20021;-50
2022/10/26 05:55:32;;;;;;;9.90;4.72;;;9.20;99.90;;;;;;5072364;28;20593;-50
2022/10/26 05:57:58;;;;;;;265.98;158.82;;;9.20;99.90;;;;;;5071150;28;20035;-49
2022/10/26 06:00:26;;;;;;;28.27;17.90;;;9.20;99.90;;;;;;5072110;28;20051;-50
2022/10/26 06:03:13;;;;;;;10.38;6.78;;;9.20;99.90;;;;;;5072333;28;20066;-50
2022/10/26 06:05:55;;;;;;;6.70;4.38;;;9.30;99.90;;;;;;5072514;28;20028;-50
2022/10/26 06:08:23;;;;;;;14.70;6.97;;;9.40;99.90;;;;;;5032886;28;1127320;-52
2022/10/26 06:10:49;;;;;;;11.63;5.45;;;9.30;99.90;;;;;;5071911;28;20028;-49
2022/10/26 06:13:15;;;;;;;10.55;6.75;;;9.30;99.90;;;;;;5073094;28;20061;-50
2022/10/26 06:15:44;;;;;;;13.82;7.28;;;9.30;99.90;;;;;;5072841;28;20024;-49
2022/10/26 06:18:18;;;;;;;13.27;6.35;;;9.30;99.90;;;;;;5072854;28;20036;-50
2022/10/26 06:21:02;;;;;;;;;;;9.40;99.90;;;;;;5073467;28;20021;-50
2022/10/26 06:23:51;;;;;;;19.25;12.00;;;9.50;99.90;;;;;;5072850;28;19908;-52
2022/10/26 06:26:25;;;;;;;18.63;6.70;;;9.60;99.90;;;;;;5072600;28;20024;-49
2022/10/26 06:29:16;;;;;;;30.20;5.35;;;9.70;99.90;;;;;;5072391;28;20069;-50
2022/10/26 06:31:43;;;;;;;11.90;5.28;;;9.70;99.90;;;;;;5072880;28;20077;-50
2022/10/26 06:34:11;;;;;;;27.80;7.15;;;9.70;99.90;;;;;;5071769;28;20543;-51
2022/10/26 06:36:39;;;;;;;15.65;6.25;;;9.70;99.90;;;;;;5071865;28;20514;-51
2022/10/26 06:39:08;;;;;;;12.38;7.03;;;9.70;99.90;;;;;;5072219;28;20467;-51
2022/10/26 06:41:35;;;;;;;8.13;6.50;;;9.70;99.90;;;;;;5072217;28;20027;-52
2022/10/26 06:44:01;;;;;;;9.27;6.53;;;9.80;99.90;;;;;;5072300;28;20417;-50
2022/10/26 06:46:36;;;;;;;9.75;7.13;;;9.90;99.90;;;;;;5067937;28;20016;-52
2022/10/26 06:49:27;;;;;;;17.20;10.23;;;9.90;99.90;;;;;;5073986;28;20008;-51
2022/10/26 06:52:00;;;;;;;13.50;9.77;;;9.90;99.90;;;;;;5068942;28;20028;-50
2022/10/26 06:54:40;;;;;;;26.63;14.87;;;10.00;99.90;;;;;;5070166;28;20044;-49
2022/10/26 06:57:11;;;;;;;10.25;8.13;;;10.20;99.90;;;;;;5072335;28;20086;-50
2022/10/26 06:59:59;;;;;;;15.15;5.55;;;10.30;99.90;;;;;;5072167;28;20020;-51
2022/10/26 07:02:25;;;;;;;17.45;8.35;;;10.30;99.90;;;;;;5072266;28;20021;-50
2022/10/26 07:04:51;;;;;;;38.28;11.27;;;10.20;99.90;;;;;;5071918;28;20028;-52
2022/10/26 07:07:18;;;;;;;20.13;11.88;;;10.10;99.90;;;;;;5072072;28;20028;-49
2022/10/26 07:09:44;;;;;;;16.83;10.00;;;10.10;99.90;;;;;;5071824;28;20135;-51
2022/10/26 07:12:10;;;;;;;12.48;6.40;;;10.00;99.90;;;;;;5071582;28;20108;-51
2022/10/26 07:14:35;;;;;;;6.45;5.47;;;10.20;99.90;;;;;;5070529;28;20037;-50
2022/10/26 07:17:01;;;;;;;7.32;4.85;;;10.30;99.90;;;;;;5071971;28;20047;-52
2022/10/26 07:19:27;;;;;;;11.50;5.45;;;10.30;99.90;;;;;;5071250;28;20059;-50
2022/10/26 07:21:58;;;;;;;12.52;5.13;;;10.30;99.90;;;;;;5071000;28;20476;-50
2022/10/26 07:24:23;;;;;;;6.88;5.03;;;10.40;99.90;;;;;;5070657;28;20021;-54
2022/10/26 07:26:49;;;;;;;6.97;4.63;;;10.50;99.90;;;;;;5071026;28;20058;-50
2022/10/26 07:29:16;;;;;;;4.60;3.95;;;10.70;99.90;;;;;;5070488;28;20131;-49
2022/10/26 07:31:42;;;;;;;8.40;4.32;;;10.80;99.90;;;;;;5070503;28;20052;-50
2022/10/26 07:34:08;;;;;;;8.95;4.43;;;10.80;99.90;;;;;;5071020;28;20165;-50
2022/10/26 07:36:35;;;;;;;8.48;5.47;;;10.90;99.90;;;;;;5070638;28;20032;-52
2022/10/26 07:39:05;;;;;;;8.85;4.72;;;11.10;99.90;;;;;;5069783;28;20017;-51
2022/10/26 07:41:31;;;;;;;10.57;4.80;;;11.40;99.90;;;;;;5070831;28;20027;-50
2022/10/26 07:43:56;;;;;;;7.70;4.18;;;11.60;99.90;;;;;;5070956;28;20024;-50
2022/10/26 07:46:22;;;;;;;7.93;4.55;;;11.70;99.90;;;;;;5070181;28;20031;-50
2022/10/26 07:48:48;;;;;;;6.45;4.57;;;11.70;99.90;;;;;;5070384;28;20032;-49
2022/10/26 07:51:14;;;;;;;11.27;4.22;;;11.70;99.90;;;;;;5070982;28;20021;-50
2022/10/26 07:53:40;;;;;;;6.93;4.95;;;11.70;99.90;;;;;;5070944;28;20387;-51
2022/10/26 07:56:06;;;;;;;8.48;4.90;;;11.70;99.90;;;;;;5069554;28;20024;-49
2022/10/26 07:58:32;;;;;;;8.95;4.88;;;11.70;99.90;;;;;;5069331;28;20048;-51
2022/10/26 08:01:05;;;;;;;10.63;5.30;;;11.70;99.90;;;;;;5068130;28;20017;-50
2022/10/26 08:03:31;;;;;;;5.90;4.63;;;11.80;99.90;;;;;;5069536;28;20031;-51
2022/10/26 08:05:56;;;;;;;7.82;4.88;;;12.10;99.90;;;;;;5069616;28;20032;-50
2022/10/26 08:08:22;;;;;;;11.98;5.35;;;12.10;99.90;;;;;;5070007;28;20045;-50
2022/10/26 08:10:48;;;;;;;23.25;6.53;;;12.10;99.90;;;;;;5070026;28;20039;-51
2022/10/26 08:13:13;;;;;;;6.68;5.43;;;12.00;99.90;;;;;;5069908;28;20024;-52
2022/10/26 08:15:39;;;;;;;7.25;4.50;;;12.20;99.90;;;;;;5070876;28;20033;-51
2022/10/26 08:18:05;;;;;;;17.17;6.22;;;12.30;99.90;;;;;;5071428;28;20032;-50
2022/10/26 08:20:32;;;;;;;8.02;5.50;;;12.20;99.90;;;;;;5071032;28;20023;-50
2022/10/26 08:22:58;;;;;;;13.48;6.60;;;12.30;99.90;;;;;;5071132;28;20390;-49
2022/10/26 08:25:24;;;;;;;9.63;5.82;;;12.30;99.90;;;;;;5071014;28;20012;-50
2022/10/26 08:27:50;;;;;;;9.85;6.22;;;12.30;99.90;;;;;;5071199;28;20104;-51
2022/10/26 08:30:16;;;;;;;11.80;6.88;;;12.40;99.90;;;;;;5069924;28;20479;-50
2022/10/26 08:32:42;;;;;;;38.28;16.70;;;12.50;99.90;;;;;;5069708;28;20487;-50
2022/10/26 08:35:08;;;;;;;16.67;7.28;;;12.40;99.90;;;;;;5070953;28;20448;-49
2022/10/26 08:37:34;;;;;;;10.80;6.07;;;12.30;99.90;;;;;;5071094;28;20422;-51
2022/10/26 08:40:00;;;;;;;13.15;7.28;;;12.30;99.90;;;;;;5070957;28;20021;-50
2022/10/26 08:42:43;;;;;;;8.82;6.60;;;12.40;99.90;;;;;;5070932;28;20030;-51
2022/10/26 08:45:22;;;;;;;13.27;6.65;;;12.30;99.90;;;;;;5071106;28;20094;-51
2022/10/26 08:47:52;;;;;;;13.80;5.72;;;12.20;99.90;;;;;;5070879;28;20032;-53
2022/10/26 08:50:36;;;;;;;10.10;7.72;;;12.40;99.90;;;;;;5071026;28;20017;-51
2022/10/26 08:53:42;;;;;;;22.05;11.32;;;12.50;99.90;;;;;;5070915;28;20326;-51
2022/10/26 08:56:10;;;;;;;10.85;7.43;;;12.60;99.90;;;;;;5070763;28;20020;-52
2022/10/26 08:58:44;;;;;;;12.65;5.50;;;12.70;99.90;;;;;;5070457;28;20020;-51
2022/10/26 09:01:10;;;;;;;;;;;13.00;99.90;;;;;;5072970;28;20020;-52
2022/10/26 09:03:35;;;;;;;10.50;5.78;;;13.20;99.90;;;;;;5077534;28;19965;-51
2022/10/26 09:06:22;;;;;;;12.27;5.65;;;13.50;99.90;;;;;;5074364;28;20025;-51
2022/10/26 09:08:57;;;;;;;11.18;4.78;;;13.70;99.90;;;;;;5073993;28;20119;-50
2022/10/26 09:11:48;;;;;;;5.38;4.03;;;14.00;99.90;;;;;;5074332;28;20115;-52
2022/10/26 09:14:32;;;;;;;12.38;3.42;;;14.20;99.90;;;;;;5074118;28;20040;-59
2022/10/26 09:17:26;;;;;;;8.95;3.90;;;14.30;99.90;;;;;;5072508;28;20568;-53
2022/10/26 09:20:27;;;;;;;10.00;3.78;;;14.30;99.90;;;;;;5065085;28;20045;-64
2022/10/26 09:23:03;;;;;;;11.55;4.70;;;14.10;99.90;;;;;;5054111;28;20035;-52
2022/10/26 09:25:38;;;;;;;7.13;4.30;;;14.20;99.90;;;;;;5053941;28;20025;-53
2022/10/26 09:28:10;;;;;;;8.27;4.07;;;14.30;99.90;;;;;;5054102;28;20036;-50
2022/10/26 09:30:36;;;;;;;5.65;3.42;;;14.30;99.90;;;;;;5053769;28;20103;-51
2022/10/26 09:33:14;;;;;;;10.73;4.53;;;14.40;99.90;;;;;;5052851;28;20519;-50
2022/10/26 09:35:50;;;;;;;7.45;4.20;;;14.70;99.90;;;;;;5053694;28;20029;-51
2022/10/26 09:38:38;;;;;;;20.65;5.65;;;14.80;99.90;;;;;;5053598;28;20086;-52
2022/10/26 09:41:12;;;;;;;11.23;5.70;;;14.90;99.90;;;;;;5053866;28;20115;-53
2022/10/26 09:43:45;;;;;;;10.57;4.70;;;15.00;99.90;;;;;;5053828;28;20021;-51
2022/10/26 09:46:21;;;;;;;11.43;4.60;;;15.20;99.90;;;;;;5063588;28;20016;-50
2022/10/26 09:48:52;;;;;;;14.60;3.40;;;15.40;99.90;;;;;;5073377;28;20020;-52
2022/10/26 09:51:18;;;;;;;6.90;3.08;;;15.50;99.90;;;;;;5073510;28;20024;-51
2022/10/26 09:53:44;;;;;;;11.23;3.00;;;15.70;99.90;;;;;;5073651;28;20376;-51
2022/10/26 09:56:12;;;;;;;10.13;3.05;;;15.70;99.90;;;;;;5073402;28;20732;-51
2022/10/26 09:59:04;;;;;;;8.70;3.20;;;16.00;99.90;;;;;;5073114;28;20145;-51
2022/10/26 10:01:34;;;;;;;13.02;4.13;;;15.90;99.90;;;;;;5068902;28;20473;-52
2022/10/26 10:04:21;;;;;;;6.35;3.53;;;15.70;99.90;;;;;;5072876;28;20116;-55
2022/10/26 10:06:49;;;;;;;8.35;2.60;;;16.20;99.90;;;;;;5072944;28;20024;-52
2022/10/26 10:09:18;;;;;;;6.03;3.53;;;16.70;99.90;;;;;;5072982;28;20041;-52
2022/10/26 10:11:59;;;;;;;3.85;2.15;;;17.10;99.90;;;;;;5072160;28;20032;-53
2022/10/26 10:14:32;;;;;;;4.75;3.08;;;17.40;99.90;;;;;;5072751;28;20040;-52
2022/10/26 10:17:03;;;;;;;8.35;3.40;;;17.30;99.90;;;;;;5073251;28;20111;-52
2022/10/26 10:19:36;;;;;;;5.00;2.13;;;17.40;99.90;;;;;;5072843;28;20033;-51
2022/10/26 10:22:11;;;;;;;6.30;2.70;;;17.60;99.90;;;;;;5073102;28;20013;-50
2022/10/26 10:24:40;;;;;;;7.25;2.10;;;17.90;99.90;;;;;;5072709;28;20052;-54
2022/10/26 10:27:12;;;;;;;12.65;2.28;;;17.80;99.90;;;;;;5073215;28;20028;-54
2022/10/26 10:29:43;;;;;;;11.10;3.00;;;17.70;99.90;;;;;;5072765;28;20040;-51
2022/10/26 10:32:29;;;;;;;5.03;2.65;;;18.30;99.90;;;;;;5058472;28;20025;-52
2022/10/26 10:34:56;;;;;;;6.95;1.83;;;18.50;99.90;;;;;;5045782;28;20367;-50
2022/10/26 10:37:26;;;;;;;7.85;2.45;;;19.00;99.90;;;;;;5044512;28;20025;-52
2022/10/26 10:40:06;;;;;;;8.88;2.45;;;19.40;99.10;;;;;;5043999;28;20017;-51
2022/10/26 10:42:35;;;;;;;10.35;2.53;;;19.50;99.10;;;;;;5043647;28;20031;-52
2022/10/26 10:45:02;;;;;;;5.60;2.20;;;19.40;99.20;;;;;;5043324;28;20094;-51
2022/10/26 10:47:31;;;;;;;6.32;3.00;;;19.70;98.80;;;;;;5042975;28;20041;-51
2022/10/26 10:50:17;;;;;;;3.72;2.30;;;19.90;98.00;;;;;;5043288;28;20670;-51
2022/10/26 10:52:43;;;;;;;4.75;2.65;;;19.60;98.20;;;;;;5045032;28;20037;-54
2022/10/26 10:55:12;;;;;;;3.20;1.98;;;19.60;99.20;;;;;;5042228;28;20029;-51
2022/10/26 10:57:46;;;;;;;3.97;2.28;;;19.40;98.80;;;;;;5044376;28;20025;-49
2022/10/26 11:00:12;;;;;;;8.68;2.22;;;19.00;98.10;;;;;;5044272;28;20021;-49
2022/10/26 11:03:03;;;;;;;6.35;1.95;;;18.70;99.70;;;;;;5043542;28;20024;-52
2022/10/26 11:05:56;;;;;;;5.75;2.15;;;18.70;99.90;;;;;;5042595;28;20032;-54
2022/10/26 11:08:47;;;;;;;4.53;1.80;;;18.50;99.90;;;;;;5043488;28;20044;-52
2022/10/26 11:11:26;;;;;;;2.70;1.90;;;18.50;99.70;;;;;;5040928;28;20298;-52
2022/10/26 11:14:16;;;;;;;3.30;1.90;;;18.90;99.00;;;;;;5040591;28;20029;-51
2022/10/26 11:16:44;;;;;;;5.93;2.45;;;19.30;98.60;;;;;;5041065;28;20051;-50
2022/10/26 11:19:16;;;;;;;7.90;1.80;;;19.80;98.50;;;;;;5041428;28;20025;-51
2022/10/26 11:21:47;;;;;;;4.15;1.40;;;20.80;96.40;;;;;;5042216;28;20029;-51
2022/10/26 11:24:16;;;;;;;3.50;1.67;;;22.00;96.20;;;;;;5047440;28;20021;-52
2022/10/26 11:26:45;;;;;;;5.72;1.55;;;23.30;93.90;;;;;;5052078;28;20083;-49
2022/10/26 11:29:20;;;;;;;4.97;1.65;;;25.30;90.20;;;;;;5066758;28;20012;-53
2022/10/26 11:31:55;;;;;;;4.45;1.42;;;26.50;78.30;;;;;;5070009;28;20024;-51
2022/10/26 11:34:21;;;;;;;11.48;1.30;;;26.00;73.80;;;;;;5071663;28;20413;-50
2022/10/26 11:36:53;;;;;;;2.55;1.27;;;25.40;74.20;;;;;;5071710;28;20037;-49
2022/10/26 11:39:30;;;;;;;7.60;1.52;;;24.70;74.70;;;;;;5071594;28;20021;-53
2022/10/26 11:42:08;;;;;;;4.15;1.42;;;23.00;79.20;;;;;;5071688;28;20060;-49
2022/10/26 11:44:40;;;;;;;8.13;1.80;;;22.10;84.40;;;;;;5071753;28;20020;-51
2022/10/26 11:47:37;;;;;;;6.32;2.00;;;21.90;87.40;;;;;;5071605;28;20031;-50
2022/10/26 11:50:06;;;;;;;4.05;2.20;;;21.30;87.90;;;;;;5071731;28;20021;-50
2022/10/26 11:52:46;;;;;;;5.07;1.55;;;20.50;91.20;;;;;;5071446;28;20024;-51
2022/10/26 11:55:11;;;;;;;5.32;2.08;;;19.90;93.80;;;;;;5071442;28;20023;-51
2022/10/26 11:57:45;;;;;;;5.85;2.10;;;19.40;94.60;;;;;;5071423;28;20025;-51
2022/10/26 12:00:16;;;;;;;14.65;7.57;;;19.10;96.30;;;;;;5071461;28;20155;-50
2022/10/26 12:02:56;;;;;;;22.85;11.80;;;18.70;98.50;;;;;;5071528;28;20020;-53
2022/10/26 12:05:40;;;;;;;7.65;3.92;;;18.30;99.90;;;;;;5071422;28;20024;-52
2022/10/26 12:08:23;;;;;;;7.15;3.20;;;18.00;99.90;;;;;;5069916;28;20534;-51
2022/10/26 12:11:00;;;;;;;4.70;2.90;;;17.90;99.90;;;;;;5071372;28;20063;-51
2022/10/26 12:13:30;;;;;;;14.77;4.97;;;17.60;99.90;;;;;;5071387;28;20372;-51
2022/10/26 12:16:04;;;;;;;8.50;3.78;;;17.60;99.90;;;;;;5071229;28;20113;-51
2022/10/26 12:18:38;;;;;;;10.70;3.90;;;17.50;99.90;;;;;;5070896;28;20025;-51
2022/10/26 12:21:07;;;;;;;8.65;4.00;;;17.40;99.90;;;;;;5071172;28;20032;-52
2022/10/26 12:23:52;;;;;;;8.27;4.22;;;17.40;99.90;;;;;;5071093;28;20028;-51
2022/10/26 12:26:23;;;;;;;18.23;4.70;;;17.30;99.90;;;;;;5071065;28;20364;-51
2022/10/26 12:29:01;;;;;;;11.88;5.30;;;17.30;99.90;;;;;;5071053;28;20085;-51
2022/10/26 12:31:36;;;;;;;9.88;4.68;;;17.20;99.90;;;;;;5070978;28;20036;-51
2022/10/26 12:34:20;;;;;;;12.90;4.68;;;17.10;99.90;;;;;;5071240;28;20021;-55
2022/10/26 12:36:55;;;;;;;7.72;4.60;;;17.00;99.90;;;;;;5073511;28;20440;-51
2022/10/26 12:39:33;;;;;;;8.05;5.07;;;16.90;99.90;;;;;;5072732;28;20599;-52
2022/10/26 12:42:05;;;;;;;10.75;5.55;;;16.80;99.90;;;;;;5074098;28;20025;-52
2022/10/26 12:44:56;;;;;;;13.98;5.90;;;16.60;99.90;;;;;;5074646;28;20029;-51
2022/10/26 12:47:31;;;;;;;9.50;5.22;;;16.50;99.90;;;;;;5073726;28;20082;-53
2022/10/26 12:50:05;;;;;;;12.02;5.40;;;16.30;99.90;;;;;;5072705;28;20572;-51
2022/10/26 12:52:40;;;;;;;14.70;7.13;;;16.30;99.90;;;;;;5074723;28;20067;-51
2022/10/26 12:55:26;;;;;;;9.50;5.18;;;16.30;99.90;;;;;;5074796;28;20047;-51
2022/10/26 12:58:01;;;;;;;7.72;5.63;;;16.30;99.90;;;;;;5074607;28;20025;-51
2022/10/26 13:00:27;;;;;;;6.10;4.53;;;16.40;99.90;;;;;;5074627;28;20032;-54
2022/10/26 13:03:17;;;;;;;20.55;5.60;;;16.50;99.90;;;;;;5074663;28;20017;-51
2022/10/26 13:05:43;;;;;;;10.23;5.93;;;16.40;99.90;;;;;;5074626;28;20114;-52
2022/10/26 13:08:11;;;;;;;12.70;5.97;;;16.40;99.90;;;;;;5073009;28;20086;-55
2022/10/26 13:11:12;;;;;;;18.52;6.75;;;16.30;99.90;;;;;;5074277;28;20021;-51